createdAt,value
2018-05-06T00:00:24.262Z,19.30
2018-05-06T00:02:53.230Z,19.40
2018-05-06T00:05:22.203Z,17.90
2018-05-06T00:07:51.114Z,17.03
2018-05-06T00:10:20.007Z,18.13
2018-05-06T00:12:48.911Z,15.90
2018-05-06T00:15:17.922Z,16.17
2018-05-06T00:17:46.820Z,17.03
2018-05-06T00:20:15.856Z,16.80
2018-05-06T00:22:44.731Z,18.23
2018-05-06T00:25:13.638Z,17.77
2018-05-06T00:27:42.630Z,18.23
2018-05-06T00:30:11.546Z,17.83
2018-05-06T00:32:40.462Z,19.30
2018-05-06T00:35:10.420Z,20.23
2018-05-06T00:37:39.311Z,21.57
2018-05-06T00:40:08.204Z,17.73
2018-05-06T00:42:37.103Z,20.20
2018-05-06T00:45:06.021Z,18.97
2018-05-06T00:47:34.982Z,18.30
2018-05-06T00:50:03.913Z,17.33
2018-05-06T00:52:32.786Z,19.40
2018-05-06T00:55:01.668Z,19.43
2018-05-06T00:57:30.570Z,18.83
2018-05-06T00:59:59.447Z,18.37
2018-05-06T01:02:28.364Z,21.27
2018-05-06T01:04:57.231Z,18.73
2018-05-06T01:07:26.155Z,20.57
2018-05-06T01:09:55.899Z,17.13
2018-05-06T01:12:24.795Z,19.87
2018-05-06T01:14:53.712Z,20.20
2018-05-06T01:17:22.597Z,18.03
2018-05-06T01:19:51.570Z,19.97
2018-05-06T01:22:20.562Z,20.07
2018-05-06T01:24:49.469Z,19.93
2018-05-06T01:27:18.445Z,18.00
2018-05-06T01:29:48.963Z,19.20
2018-05-06T01:32:17.892Z,20.60
2018-05-06T01:34:47.659Z,20.97
2018-05-06T01:37:16.639Z,19.53
2018-05-06T01:39:45.543Z,20.53
2018-05-06T01:42:14.515Z,21.87
2018-05-06T01:44:43.393Z,18.83
2018-05-06T01:47:12.272Z,21.03
2018-05-06T01:49:41.174Z,21.47
2018-05-06T01:52:10.059Z,22.63
2018-05-06T01:54:38.982Z,20.53
2018-05-06T01:57:07.875Z,20.07
2018-05-06T01:59:36.774Z,21.37
2018-05-06T02:02:05.738Z,19.47
2018-05-06T02:04:36.157Z,20.53
2018-05-06T02:07:05.051Z,20.17
2018-05-06T02:09:33.930Z,24.00
2018-05-06T02:12:02.851Z,20.03
2018-05-06T02:14:31.742Z,20.77
2018-05-06T02:17:00.725Z,22.47
2018-05-06T02:19:29.622Z,21.23
2018-05-06T02:21:58.593Z,20.23
2018-05-06T02:24:27.575Z,21.37
2018-05-06T02:26:56.457Z,22.70
2018-05-06T02:29:25.359Z,23.33
2018-05-06T02:31:54.240Z,21.20
2018-05-06T02:34:23.138Z,20.90
2018-05-06T02:36:52.063Z,23.23
2018-05-06T02:39:21.016Z,22.83
2018-05-06T02:41:49.908Z,21.77
2018-05-06T02:44:18.813Z,21.60
2018-05-06T02:46:47.720Z,21.50
2018-05-06T02:49:16.609Z,21.80
2018-05-06T02:51:45.570Z,20.63
2018-05-06T02:54:14.508Z,20.97
2018-05-06T02:56:44.158Z,21.53
2018-05-06T02:59:13.045Z,21.43
2018-05-06T03:01:41.955Z,21.80
2018-05-06T03:04:10.866Z,28.47
2018-05-06T03:06:39.771Z,24.17
2018-05-06T03:09:08.644Z,22.13
2018-05-06T03:11:37.577Z,23.60
2018-05-06T03:14:06.475Z,24.97
2018-05-06T03:16:35.414Z,22.90
2018-05-06T03:19:04.386Z,25.50
2018-05-06T03:21:33.302Z,24.17
2018-05-06T03:24:02.219Z,22.67
2018-05-06T03:26:31.122Z,23.07
2018-05-06T03:29:00.873Z,23.07
2018-05-06T03:31:29.776Z,26.47
2018-05-06T03:33:58.674Z,22.27
2018-05-06T03:36:27.589Z,25.63
2018-05-06T03:38:56.545Z,22.77
2018-05-06T03:41:25.503Z,26.30
2018-05-06T03:43:54.423Z,24.20
2018-05-06T03:46:26.180Z,24.33
2018-05-06T03:48:55.115Z,25.63
2018-05-06T03:51:24.827Z,25.50
2018-05-06T03:53:53.726Z,25.35
2018-05-06T03:59:56.142Z,27.35
2018-05-06T04:02:39.920Z,24.17
2018-05-06T04:05:09.603Z,22.65
2018-05-06T04:07:38.505Z,22.00
2018-05-06T04:10:07.391Z,21.30
2018-05-06T04:12:36.285Z,24.53
2018-05-06T04:15:05.960Z,22.80
2018-05-06T04:17:34.847Z,21.60
2018-05-06T04:20:03.774Z,20.95
2018-05-06T04:22:33.535Z,22.43
2018-05-06T04:25:02.441Z,25.42
2018-05-06T04:27:31.360Z,20.30
2018-05-06T04:30:01.053Z,21.30
2018-05-06T04:32:29.934Z,19.62
2018-05-06T04:34:58.847Z,19.77
2018-05-06T04:37:27.756Z,19.98
2018-05-06T04:39:56.668Z,22.23
2018-05-06T04:42:25.589Z,20.73
2018-05-06T04:44:54.563Z,24.60
2018-05-06T04:47:23.475Z,19.52
2018-05-06T04:49:53.897Z,19.55
2018-05-06T04:52:24.410Z,19.40
2018-05-06T04:54:53.343Z,19.12
2018-05-06T04:57:23.097Z,20.70
2018-05-06T04:59:52.116Z,17.65
2018-05-06T05:02:21.080Z,21.87
2018-05-06T05:04:49.986Z,17.50
2018-05-06T05:07:18.919Z,17.07
2018-05-06T05:09:48.608Z,18.47
2018-05-06T05:12:17.486Z,17.80
2018-05-06T05:14:48.817Z,19.20
2018-05-06T05:17:17.805Z,16.60
2018-05-06T05:19:46.779Z,16.43
2018-05-06T05:22:15.712Z,16.63
2018-05-06T05:24:44.601Z,15.97
2018-05-06T05:27:13.566Z,21.43
2018-05-06T05:29:42.447Z,16.33
2018-05-06T05:32:11.372Z,16.50
2018-05-06T05:34:41.788Z,16.97
2018-05-06T05:37:10.750Z,19.93
2018-05-06T05:39:39.627Z,16.37
2018-05-06T05:42:08.508Z,19.87
2018-05-06T05:44:37.413Z,18.37
2018-05-06T05:47:06.294Z,20.20
2018-05-06T05:49:35.206Z,17.40
2018-05-06T05:52:04.187Z,17.57
2018-05-06T05:54:33.127Z,16.50
2018-05-06T05:57:02.035Z,18.07
2018-05-06T05:59:31.731Z,17.50
2018-05-06T06:02:00.620Z,22.90
2018-05-06T06:04:30.263Z,18.50
2018-05-06T06:06:59.192Z,19.47
2018-05-06T06:09:28.087Z,18.90
2018-05-06T06:11:56.966Z,18.17
2018-05-06T06:14:25.900Z,20.23
2018-05-06T06:16:55.564Z,19.67
2018-05-06T06:19:24.539Z,18.40
2018-05-06T06:21:53.456Z,21.17
2018-05-06T06:24:22.369Z,23.43
2018-05-06T06:26:52.035Z,28.90
2018-05-06T06:29:20.952Z,21.63
2018-05-06T06:31:49.871Z,19.20
2018-05-06T06:34:18.754Z,19.70
2018-05-06T06:36:47.654Z,18.93
2018-05-06T06:39:16.551Z,20.00
2018-05-06T06:41:45.492Z,22.77
2018-05-06T06:44:14.403Z,21.50
2018-05-06T06:46:43.306Z,23.37
2018-05-06T06:49:12.244Z,25.37
2018-05-06T06:51:41.242Z,25.73
2018-05-06T06:54:10.143Z,24.90
2018-05-06T06:56:39.056Z,25.67
2018-05-06T06:59:08.751Z,24.30
2018-05-06T07:01:39.160Z,25.20
2018-05-06T07:04:08.074Z,25.80
2018-05-06T07:06:37.850Z,27.47
2018-05-06T07:09:06.826Z,27.50
2018-05-06T07:11:35.728Z,24.70
2018-05-06T07:14:04.647Z,22.73
2018-05-06T07:16:33.529Z,22.33
2018-05-06T07:19:03.315Z,23.93
2018-05-06T07:21:32.244Z,24.50
2018-05-06T07:24:01.179Z,24.83
2018-05-06T07:26:30.068Z,22.30
2018-05-06T07:28:59.001Z,20.47
2018-05-06T07:31:27.900Z,19.30
2018-05-06T07:33:57.579Z,18.60
2018-05-06T07:36:26.480Z,20.73
2018-05-06T07:38:55.380Z,20.50
2018-05-06T07:41:25.068Z,16.00
2018-05-06T07:43:53.923Z,15.57
2018-05-06T07:46:23.111Z,14.83
2018-05-06T07:48:52.967Z,12.97
2018-05-06T07:51:21.857Z,11.90
2018-05-06T07:53:50.780Z,11.23
2018-05-06T07:56:19.702Z,15.03
2018-05-06T07:58:48.710Z,12.07
2018-05-06T08:01:17.616Z,12.97
2018-05-06T08:03:48.028Z,13.17
2018-05-06T08:06:17.768Z,10.93
2018-05-06T08:08:47.458Z,10.13
2018-05-06T08:11:16.361Z,8.67
2018-05-06T08:13:45.256Z,10.07
2018-05-06T08:16:14.955Z,9.73
2018-05-06T08:18:43.841Z,8.83
2018-05-06T08:21:12.745Z,9.30
2018-05-06T08:23:42.514Z,8.67
2018-05-06T08:26:11.518Z,8.00
2018-05-06T08:28:40.490Z,8.37
2018-05-06T08:31:09.431Z,9.10
2018-05-06T08:33:38.377Z,8.37
2018-05-06T08:36:07.282Z,7.50
2018-05-06T08:38:36.155Z,8.43
2018-05-06T08:41:05.146Z,9.60
2018-05-06T08:43:34.149Z,7.90
2018-05-06T08:46:03.029Z,12.93
2018-05-06T08:48:31.962Z,8.70
2018-05-06T08:51:01.644Z,8.50
2018-05-06T08:53:30.564Z,7.60
2018-05-06T08:56:00.247Z,9.23
2018-05-06T08:58:29.097Z,7.33
2018-05-06T09:00:57.986Z,9.43
2018-05-06T09:03:26.986Z,9.30
2018-05-06T09:05:55.993Z,8.77
2018-05-06T09:08:24.867Z,8.37
2018-05-06T09:10:53.764Z,8.90
2018-05-06T09:13:22.674Z,8.60
2018-05-06T09:15:51.565Z,11.70
2018-05-06T09:18:20.531Z,8.70
2018-05-06T09:20:49.421Z,13.93
2018-05-06T09:23:18.296Z,7.33
2018-05-06T09:25:47.193Z,8.57
2018-05-06T09:28:16.095Z,8.47
2018-05-06T09:30:45.176Z,9.60
2018-05-06T09:33:14.067Z,7.80
2018-05-06T09:35:42.957Z,7.03
2018-05-06T09:38:11.968Z,9.07
2018-05-06T09:40:40.841Z,9.83
2018-05-06T09:43:09.743Z,8.93
2018-05-06T09:45:38.637Z,11.60
2018-05-06T09:48:07.628Z,7.13
2018-05-06T09:50:36.501Z,7.53
2018-05-06T09:53:05.394Z,8.33
2018-05-06T09:55:34.325Z,8.00
2018-05-06T09:58:03.264Z,7.77
2018-05-06T10:00:32.168Z,7.83
2018-05-06T10:03:01.159Z,7.90
2018-05-06T10:05:30.093Z,7.40
2018-05-06T10:07:58.992Z,9.77
2018-05-06T10:10:28.634Z,6.23
2018-05-06T10:12:57.631Z,8.90
2018-05-06T10:15:26.521Z,11.23
2018-05-06T10:17:55.416Z,6.53
2018-05-06T10:20:24.303Z,7.33
2018-05-06T10:22:53.203Z,6.43
2018-05-06T10:25:23.626Z,6.43
2018-05-06T10:27:52.520Z,5.57
2018-05-06T10:30:21.473Z,6.23
2018-05-06T10:32:50.504Z,5.00
2018-05-06T10:35:19.386Z,6.33
2018-05-06T10:37:48.302Z,6.20
2018-05-06T10:40:17.171Z,6.43
2018-05-06T10:42:46.047Z,9.70
2018-05-06T10:45:14.980Z,7.13
2018-05-06T10:47:43.850Z,8.17
2018-05-06T10:50:12.807Z,4.83
2018-05-06T10:52:41.692Z,6.30
2018-05-06T10:55:10.581Z,5.57
2018-05-06T10:57:39.467Z,6.30
2018-05-06T11:00:08.366Z,8.50
2018-05-06T11:02:37.271Z,5.97
2018-05-06T11:05:06.165Z,4.93
2018-05-06T11:07:35.067Z,6.30
2018-05-06T11:10:05.468Z,3.70
2018-05-06T11:12:34.355Z,4.23
2018-05-06T11:15:03.281Z,6.40
2018-05-06T11:17:32.179Z,5.10
2018-05-06T11:20:01.103Z,7.90
2018-05-06T11:22:30.012Z,5.93
2018-05-06T11:24:58.894Z,5.70
2018-05-06T11:27:27.809Z,4.40
2018-05-06T11:29:56.748Z,11.23
2018-05-06T11:32:25.712Z,4.30
2018-05-06T11:34:54.578Z,4.17
2018-05-06T11:37:24.224Z,4.77
2018-05-06T11:39:53.146Z,4.00
2018-05-06T11:42:22.031Z,3.83
2018-05-06T11:44:50.963Z,4.10
2018-05-06T11:47:19.856Z,4.20
2018-05-06T11:49:48.759Z,4.73
2018-05-06T11:52:18.432Z,3.80
2018-05-06T11:54:47.311Z,4.70
2018-05-06T11:57:16.216Z,3.97
2018-05-06T11:59:45.104Z,3.63
2018-05-06T12:02:13.991Z,5.60
2018-05-06T12:04:42.874Z,5.93
2018-05-06T12:07:11.882Z,4.10
2018-05-06T12:09:40.752Z,3.37
2018-05-06T12:12:09.739Z,6.10
2018-05-06T12:14:38.703Z,4.93
2018-05-06T12:17:07.678Z,6.73
2018-05-06T12:19:37.447Z,5.77
2018-05-06T12:22:06.344Z,5.30
2018-05-06T12:24:35.245Z,5.07
2018-05-06T12:27:04.132Z,5.93
2018-05-06T12:29:33.802Z,8.23
2018-05-06T12:32:02.785Z,7.33
2018-05-06T12:34:31.780Z,4.23
2018-05-06T12:37:00.660Z,3.60
2018-05-06T12:39:29.552Z,3.70
2018-05-06T12:41:58.422Z,3.70
2018-05-06T12:44:27.323Z,4.77
2018-05-06T12:46:56.210Z,3.50
2018-05-06T12:49:25.143Z,3.83
2018-05-06T12:51:54.031Z,5.60
2018-05-06T12:54:22.929Z,3.20
2018-05-06T12:56:51.819Z,6.50
2018-05-06T12:59:20.793Z,6.43
2018-05-06T13:01:49.735Z,5.13
2018-05-06T13:04:19.395Z,6.23
2018-05-06T13:06:48.377Z,2.73
2018-05-06T13:09:17.263Z,3.93
2018-05-06T13:11:46.144Z,4.20
2018-05-06T13:14:15.053Z,4.20
2018-05-06T13:16:44.033Z,4.07
2018-05-06T13:19:13.025Z,6.47
2018-05-06T13:21:41.933Z,4.67
2018-05-06T13:24:10.826Z,4.10
2018-05-06T13:26:39.721Z,3.63
2018-05-06T13:29:08.664Z,3.77
2018-05-06T13:31:37.602Z,5.60
2018-05-06T13:34:06.508Z,5.53
2018-05-06T13:36:36.177Z,3.40
2018-05-06T13:39:05.824Z,3.47
2018-05-06T13:41:34.715Z,6.30
2018-05-06T13:44:03.723Z,6.18
2018-05-06T13:46:33.291Z,5.33
2018-05-06T13:49:03.716Z,5.23
2018-05-06T13:51:32.601Z,4.20
2018-05-06T13:54:01.495Z,6.77
2018-05-06T13:56:30.605Z,5.10
2018-05-06T13:58:59.488Z,4.73
2018-05-06T14:01:28.697Z,4.07
2018-05-06T14:03:57.591Z,6.17
2018-05-06T14:06:26.645Z,3.87
2018-05-06T14:08:55.553Z,5.67
2018-05-06T14:11:24.504Z,4.90
2018-05-06T14:13:53.410Z,2.97
2018-05-06T14:16:23.404Z,5.37
2018-05-06T14:18:53.373Z,6.67
2018-05-06T14:21:22.386Z,2.70
2018-05-06T14:23:52.060Z,2.80
2018-05-06T14:26:20.937Z,3.53
2018-05-06T14:28:49.879Z,3.63
2018-05-06T14:31:19.516Z,3.87
2018-05-06T14:33:48.401Z,5.83
2018-05-06T14:36:17.307Z,4.27
2018-05-06T14:38:46.200Z,3.77
2018-05-06T14:41:15.165Z,3.50
2018-05-06T14:43:44.092Z,4.80
2018-05-06T14:46:33.745Z,3.57
2018-05-06T14:49:02.640Z,3.77
2018-05-06T14:51:31.520Z,5.47
2018-05-06T14:54:00.426Z,2.67
2018-05-06T14:56:29.411Z,3.17
2018-05-06T14:58:58.323Z,3.43
2018-05-06T15:01:27.243Z,4.10
2018-05-06T15:03:56.140Z,3.60
2018-05-06T15:06:25.903Z,3.90
2018-05-06T15:08:54.775Z,5.20
2018-05-06T15:11:23.677Z,6.37
2018-05-06T15:13:52.612Z,3.57
2018-05-06T15:16:22.319Z,5.50
2018-05-06T15:18:51.355Z,5.63
2018-05-06T15:21:20.263Z,3.43
2018-05-06T15:23:49.136Z,4.07
2018-05-06T15:26:18.085Z,4.27
2018-05-06T15:28:47.761Z,5.67
2018-05-06T15:31:16.671Z,3.10
2018-05-06T15:33:46.327Z,3.60
2018-05-06T15:36:15.223Z,4.17
2018-05-06T15:38:44.111Z,2.50
2018-05-06T15:41:13.114Z,4.73
2018-05-06T15:43:41.933Z,3.70
2018-05-06T15:46:12.319Z,3.33
2018-05-06T15:48:41.223Z,3.00
2018-05-06T15:51:10.142Z,2.43
2018-05-06T15:53:39.033Z,2.70
2018-05-06T15:56:08.690Z,2.97
2018-05-06T15:58:37.594Z,2.43
2018-05-06T16:01:06.574Z,3.40
2018-05-06T16:03:47.395Z,2.87
2018-05-06T16:06:17.042Z,2.90
2018-05-06T16:08:46.045Z,2.83
2018-05-06T16:11:14.922Z,4.70
2018-05-06T16:13:43.848Z,4.33
2018-05-06T16:16:12.757Z,3.10
2018-05-06T16:18:41.629Z,4.37
2018-05-06T16:21:10.552Z,3.67
2018-05-06T16:23:40.211Z,2.60
2018-05-06T16:26:09.223Z,2.63
2018-05-06T16:28:38.101Z,2.20
2018-05-06T16:31:07.011Z,1.93
2018-05-06T16:33:35.906Z,2.97
2018-05-06T16:36:05.571Z,2.20
2018-05-06T16:38:34.493Z,1.83
2018-05-06T16:41:03.436Z,4.97
2018-05-06T16:43:32.346Z,5.00
2018-05-06T16:46:01.280Z,3.10
2018-05-06T16:48:30.222Z,2.13
2018-05-06T16:50:59.131Z,2.93
2018-05-06T16:53:28.058Z,2.17
2018-05-06T16:55:57.738Z,2.43
2018-05-06T16:58:26.681Z,2.53
2018-05-06T17:00:55.610Z,2.87
2018-05-06T17:03:24.508Z,4.47
2018-05-06T17:05:53.397Z,2.77
2018-05-06T17:08:22.375Z,3.10
2018-05-06T17:10:51.327Z,3.40
2018-05-06T17:13:20.216Z,3.00
2018-05-06T17:15:49.119Z,1.87
2018-05-06T17:18:18.029Z,2.00
2018-05-06T17:20:46.896Z,3.47
2018-05-06T17:23:15.859Z,2.67
2018-05-06T17:25:45.500Z,3.27
2018-05-06T17:28:14.403Z,1.73
2018-05-06T17:30:43.337Z,4.47
2018-05-06T17:33:13.002Z,2.13
2018-05-06T17:35:43.456Z,1.70
2018-05-06T17:38:12.401Z,2.83
2018-05-06T17:40:41.315Z,1.77
2018-05-06T17:43:10.210Z,3.00
2018-05-06T17:45:39.119Z,4.70
2018-05-06T17:48:08.093Z,4.13
2018-05-06T17:50:37.019Z,3.97
2018-05-06T17:53:06.704Z,2.33
2018-05-06T17:55:35.631Z,3.20
2018-05-06T17:58:05.296Z,2.63
2018-05-06T18:00:34.243Z,2.83
2018-05-06T18:03:03.136Z,3.20
2018-05-06T18:05:32.159Z,1.90
2018-05-06T18:08:01.024Z,2.27
2018-05-06T18:10:29.967Z,1.90
2018-05-06T18:12:59.640Z,2.33
2018-05-06T18:15:28.574Z,2.80
2018-05-06T18:17:58.264Z,3.03
2018-05-06T18:20:27.956Z,2.00
2018-05-06T18:22:56.873Z,5.73
2018-05-06T18:25:25.871Z,3.47
2018-05-06T18:27:54.700Z,2.53
2018-05-06T18:30:23.606Z,4.43
2018-05-06T18:32:52.546Z,2.70
2018-05-06T18:35:22.503Z,3.83
2018-05-06T18:37:51.405Z,2.47
2018-05-06T18:40:20.314Z,2.20
2018-05-06T18:42:49.210Z,3.50
2018-05-06T18:45:18.885Z,2.10
2018-05-06T18:50:21.091Z,2.37
2018-05-06T18:52:50.044Z,2.10
2018-05-06T18:55:19.356Z,2.07
2018-05-06T18:57:48.302Z,3.40
2018-05-06T19:00:18.013Z,3.30
2018-05-06T19:02:46.953Z,3.57
2018-05-06T19:05:15.861Z,4.00
2018-05-06T19:07:45.565Z,4.30
2018-05-06T19:10:14.477Z,4.47
2018-05-06T19:12:44.228Z,4.70
2018-05-06T19:15:13.142Z,4.00
2018-05-06T19:17:42.096Z,2.47
2018-05-06T19:20:11.200Z,2.17
2018-05-06T19:22:40.128Z,2.93
2018-05-06T19:25:09.067Z,4.80
2018-05-06T19:27:38.021Z,3.23
2018-05-06T19:30:07.601Z,4.17
2018-05-06T19:32:36.620Z,1.90
2018-05-06T19:35:05.542Z,3.17
2018-05-06T19:37:34.495Z,3.27
2018-05-06T19:40:03.423Z,3.53
2018-05-06T19:42:32.380Z,4.93
2018-05-06T19:45:02.160Z,4.60
2018-05-06T19:47:31.059Z,3.77
2018-05-06T19:50:00.466Z,5.67
2018-05-06T19:52:29.418Z,3.50
2018-05-06T19:54:59.399Z,5.13
2018-05-06T19:57:28.862Z,4.07
2018-05-06T19:59:57.937Z,3.23
2018-05-06T20:02:27.256Z,5.13
2018-05-06T20:04:56.166Z,4.60
2018-05-06T20:07:25.533Z,3.10
2018-05-06T20:09:54.794Z,4.13
2018-05-06T20:12:24.498Z,6.00
2018-05-06T20:14:54.210Z,5.90
2018-05-06T20:17:23.177Z,4.30
2018-05-06T20:19:52.952Z,2.90
2018-05-06T20:22:22.248Z,3.17
2018-05-06T20:24:51.202Z,6.53
2018-05-06T20:27:20.853Z,4.83
2018-05-06T20:29:50.014Z,2.60
2018-05-06T20:32:18.960Z,3.27
2018-05-06T20:34:48.232Z,2.67
2018-05-06T20:37:17.950Z,8.17
2018-05-06T20:39:47.238Z,4.63
2018-05-06T20:42:16.212Z,2.40
2018-05-06T20:44:45.146Z,5.03
2018-05-06T20:47:14.033Z,2.83
2018-05-06T20:49:43.007Z,3.60
2018-05-06T20:52:11.920Z,3.30
2018-05-06T20:54:40.867Z,4.20
2018-05-06T20:57:09.796Z,2.50
2018-05-06T20:59:38.786Z,2.63
2018-05-06T21:02:07.661Z,3.80
2018-05-06T21:04:36.565Z,3.50
2018-05-06T21:07:05.486Z,3.80
2018-05-06T21:09:35.175Z,3.33
2018-05-06T21:12:04.067Z,5.90
2018-05-06T21:14:33.838Z,2.40
2018-05-06T21:17:02.732Z,3.27
2018-05-06T21:19:31.626Z,4.17
2018-05-06T21:22:00.539Z,3.33
2018-05-06T21:24:29.431Z,5.53
2018-05-06T21:26:59.094Z,4.17
2018-05-06T21:29:28.004Z,4.90
2018-05-06T21:31:56.979Z,4.80
2018-05-06T21:34:25.887Z,5.53
2018-05-06T21:36:54.852Z,4.70
2018-05-06T21:39:23.752Z,5.50
2018-05-06T21:41:52.641Z,3.50
2018-05-06T21:44:21.537Z,4.93
2018-05-06T21:46:50.438Z,6.47
2018-05-06T21:49:19.332Z,3.00
2018-05-06T21:51:49.747Z,3.63
2018-05-06T21:54:18.653Z,5.37
2018-05-06T21:56:48.326Z,4.73
2018-05-06T21:59:17.231Z,4.13
2018-05-06T22:01:46.126Z,3.90
2018-05-06T22:04:15.036Z,3.57
2018-05-06T22:06:43.931Z,4.50
2018-05-06T22:09:13.601Z,4.90
2018-05-06T22:11:42.551Z,6.33
2018-05-06T22:14:11.522Z,4.50
2018-05-06T22:16:40.398Z,4.40
2018-05-06T22:19:10.090Z,5.33
2018-05-06T22:21:38.987Z,3.53
2018-05-06T22:24:07.900Z,7.77
2018-05-06T22:26:36.799Z,4.83
2018-05-06T22:29:06.502Z,5.90
2018-05-06T22:31:36.164Z,4.60
2018-05-06T22:34:05.063Z,3.87
2018-05-06T22:36:33.984Z,4.90
2018-05-06T22:39:03.674Z,3.80
2018-05-06T22:41:32.610Z,4.13
2018-05-06T22:44:02.246Z,3.63
2018-05-06T22:46:31.139Z,2.57
2018-05-06T22:49:00.135Z,2.80
2018-05-06T22:51:29.013Z,3.43
2018-05-06T22:53:57.948Z,4.00
2018-05-06T22:56:27.588Z,5.80
2018-05-06T22:58:56.471Z,5.50
2018-05-06T23:01:25.364Z,4.37
2018-05-06T23:03:54.272Z,4.90
2018-05-06T23:06:23.326Z,4.40
2018-05-06T23:08:52.190Z,3.50
2018-05-06T23:11:21.140Z,2.93
2018-05-06T23:13:50.025Z,3.50
2018-05-06T23:16:18.947Z,4.20
2018-05-06T23:18:47.807Z,3.20
2018-05-06T23:21:16.693Z,3.97
2018-05-06T23:23:45.579Z,4.90
2018-05-06T23:26:15.195Z,6.23
2018-05-06T23:28:44.083Z,4.30
2018-05-06T23:31:12.972Z,2.83
2018-05-06T23:33:41.902Z,3.83
2018-05-06T23:36:10.842Z,3.10
2018-05-06T23:38:40.446Z,4.90
2018-05-06T23:41:09.317Z,3.50
2018-05-06T23:43:38.277Z,6.57
2018-05-06T23:46:07.119Z,4.23
2018-05-06T23:48:36.030Z,2.40
2018-05-06T23:51:04.937Z,2.00
2018-05-06T23:53:33.892Z,4.43
2018-05-06T23:56:02.775Z,3.77
2018-05-06T23:58:31.687Z,3.00
